createdAt,value
2023-02-22T00:01:35.668Z,11.40
2023-02-22T00:04:39.908Z,12.32
2023-02-22T00:07:42.405Z,11.38
2023-02-22T00:10:45.424Z,12.03
2023-02-22T00:13:50.640Z,11.53
2023-02-22T00:16:53.014Z,12.27
2023-02-22T00:19:55.240Z,11.70
2023-02-22T00:22:57.560Z,11.40
2023-02-22T00:26:01.357Z,12.03
2023-02-22T00:29:03.721Z,10.13
2023-02-22T00:32:06.203Z,11.50
2023-02-22T00:35:09.000Z,11.50
2023-02-22T00:38:12.099Z,10.32
2023-02-22T00:41:15.226Z,9.93
2023-02-22T00:44:17.642Z,10.47
2023-02-22T00:47:20.033Z,10.48
2023-02-22T00:50:24.957Z,10.80
2023-02-22T00:53:27.436Z,10.35
2023-02-22T00:56:29.778Z,10.77
2023-02-22T00:59:32.166Z,10.37
2023-02-22T01:02:34.760Z,11.20
2023-02-22T01:05:38.481Z,10.93
2023-02-22T01:08:45.267Z,10.45
2023-02-22T01:11:49.082Z,10.53
2023-02-22T01:14:51.622Z,10.93
2023-02-22T01:17:55.091Z,11.25
2023-02-22T01:20:57.516Z,12.05
2023-02-22T01:24:00.022Z,12.10
2023-02-22T01:27:02.816Z,13.13
2023-02-22T01:30:08.838Z,16.67
2023-02-22T01:33:13.026Z,13.75
2023-02-22T01:36:15.299Z,13.05
2023-02-22T01:39:18.200Z,12.20
2023-02-22T01:42:20.571Z,12.27
2023-02-22T01:45:35.005Z,11.47
2023-02-22T01:48:45.297Z,10.57
2023-02-22T01:51:52.002Z,11.05
2023-02-22T01:54:58.383Z,9.95
2023-02-22T01:58:01.664Z,10.10
2023-02-22T02:01:05.701Z,9.13
2023-02-22T02:04:20.935Z,9.25
2023-02-22T02:07:25.066Z,10.77
2023-02-22T02:10:28.511Z,7.65
2023-02-22T02:13:30.961Z,10.77
2023-02-22T02:16:46.439Z,9.47
2023-02-22T02:20:11.824Z,9.68
2023-02-22T02:23:52.629Z,9.30
2023-02-22T02:27:13.925Z,9.48
2023-02-22T02:30:25.510Z,8.47
2023-02-22T02:33:35.326Z,9.10
2023-02-22T02:36:47.696Z,8.80
2023-02-22T02:39:55.905Z,8.57
2023-02-22T02:43:05.333Z,9.13
2023-02-22T02:46:15.513Z,11.40
2023-02-22T02:49:27.683Z,9.43
2023-02-22T02:52:33.495Z,9.43
2023-02-22T02:55:37.313Z,9.30
2023-02-22T02:58:46.353Z,9.63
2023-02-22T03:02:07.670Z,9.20
2023-02-22T03:05:28.162Z,8.57
2023-02-22T03:09:01.652Z,10.27
2023-02-22T03:12:22.284Z,9.75
2023-02-22T03:16:13.026Z,9.50
2023-02-22T03:19:45.977Z,11.63
2023-02-22T03:22:57.973Z,9.50
2023-02-22T03:26:13.499Z,11.20
2023-02-22T03:29:18.852Z,10.90
2023-02-22T03:32:25.571Z,11.12
2023-02-22T03:35:35.581Z,12.77
2023-02-22T03:38:41.157Z,12.37
2023-02-22T03:41:51.595Z,12.65
2023-02-22T03:44:55.412Z,14.20
2023-02-22T03:48:05.024Z,15.63
2023-02-22T03:51:07.911Z,14.23
2023-02-22T03:54:16.589Z,12.33
2023-02-22T03:57:29.516Z,12.60
2023-02-22T04:00:35.150Z,14.93
2023-02-22T04:03:37.466Z,11.35
2023-02-22T04:06:39.861Z,10.03
2023-02-22T04:09:42.719Z,10.30
2023-02-22T04:12:45.457Z,9.70
2023-02-22T04:15:47.894Z,9.07
2023-02-22T04:18:50.369Z,8.68
2023-02-22T04:21:52.999Z,8.60
2023-02-22T04:24:55.357Z,8.00
2023-02-22T04:27:58.022Z,8.35
2023-02-22T04:31:00.974Z,8.07
2023-02-22T04:34:04.134Z,7.78
2023-02-22T04:37:07.878Z,8.77
2023-02-22T04:40:11.776Z,7.37
2023-02-22T04:43:14.101Z,7.97
2023-02-22T04:46:16.715Z,9.70
2023-02-22T04:49:19.189Z,9.05
2023-02-22T04:52:21.933Z,8.70
2023-02-22T04:55:24.367Z,8.97
2023-02-22T04:58:26.851Z,8.90
2023-02-22T05:01:33.978Z,8.68
2023-02-22T05:04:38.890Z,9.80
2023-02-22T05:07:41.272Z,8.70
2023-02-22T05:10:43.888Z,7.87
2023-02-22T05:13:46.942Z,7.25
2023-02-22T05:16:50.167Z,7.37
2023-02-22T05:19:52.996Z,7.32
2023-02-22T05:23:00.246Z,9.97
2023-02-22T05:26:02.584Z,10.07
2023-02-22T05:29:05.308Z,9.90
2023-02-22T05:32:07.735Z,9.13
2023-02-22T05:35:10.059Z,9.32
2023-02-22T05:38:15.547Z,8.53
2023-02-22T05:41:18.583Z,8.47
2023-02-22T05:44:21.183Z,8.85
2023-02-22T05:47:23.652Z,9.35
2023-02-22T05:50:27.190Z,10.50
2023-02-22T05:53:29.694Z,8.70
2023-02-22T05:56:32.097Z,16.43
2023-02-22T05:59:34.422Z,17.10
2023-02-22T06:02:37.060Z,37.75
2023-02-22T06:05:39.625Z,30.12
2023-02-22T06:08:42.037Z,24.30
2023-02-22T06:11:44.459Z,36.50
2023-02-22T06:14:46.840Z,35.72
2023-02-22T06:17:49.288Z,30.90
2023-02-22T06:20:54.466Z,17.77
2023-02-22T06:23:57.096Z,14.07
2023-02-22T06:27:01.727Z,19.23
2023-02-22T06:30:05.401Z,15.02
2023-02-22T06:33:08.311Z,20.25
2023-02-22T06:36:10.959Z,17.58
2023-02-22T06:39:13.338Z,18.17
2023-02-22T06:42:15.715Z,12.93
2023-02-22T06:45:18.729Z,12.68
2023-02-22T06:48:21.114Z,11.98
2023-02-22T06:51:24.120Z,14.10
2023-02-22T06:54:27.425Z,16.30
2023-02-22T06:57:29.764Z,14.30
2023-02-22T07:00:33.059Z,13.95
2023-02-22T07:03:36.437Z,12.32
2023-02-22T07:06:38.761Z,9.90
2023-02-22T07:09:41.115Z,9.70
2023-02-22T07:12:43.539Z,9.07
2023-02-22T07:15:45.940Z,9.70
2023-02-22T07:18:48.267Z,9.65
2023-02-22T07:21:51.129Z,9.48
2023-02-22T07:24:55.878Z,9.73
2023-02-22T07:27:59.865Z,9.53
2023-02-22T07:31:02.485Z,9.57
2023-02-22T07:34:04.896Z,9.10
2023-02-22T07:37:07.282Z,8.85
2023-02-22T07:40:10.429Z,9.77
2023-02-22T07:43:31.886Z,10.47
2023-02-22T07:46:34.277Z,9.77
2023-02-22T07:49:37.315Z,10.52
2023-02-22T07:52:39.703Z,9.60
2023-02-22T07:55:42.034Z,10.57
2023-02-22T07:58:44.498Z,10.50
2023-02-22T08:01:50.194Z,11.12
2023-02-22T08:04:52.506Z,12.05
2023-02-22T08:07:55.020Z,11.32
2023-02-22T08:10:57.488Z,11.18
2023-02-22T08:13:59.964Z,11.67
2023-02-22T08:17:02.477Z,12.05
2023-02-22T08:20:05.308Z,13.00
2023-02-22T08:23:08.868Z,13.52
2023-02-22T08:26:15.847Z,15.10
2023-02-22T08:29:18.158Z,14.30
2023-02-22T08:32:20.972Z,13.43
2023-02-22T08:35:23.580Z,14.57
2023-02-22T08:38:29.391Z,15.35
2023-02-22T08:41:31.758Z,14.35
2023-02-22T08:44:34.178Z,13.23
2023-02-22T08:47:36.907Z,14.55
2023-02-22T08:50:41.599Z,12.93
2023-02-22T08:53:44.597Z,12.77
2023-02-22T08:56:46.895Z,13.18
2023-02-22T08:59:49.343Z,12.87
2023-02-22T09:02:53.224Z,12.32
2023-02-22T09:05:56.301Z,11.85
2023-02-22T09:08:58.808Z,11.90
2023-02-22T09:12:01.159Z,13.10
2023-02-22T09:15:04.121Z,12.10
2023-02-22T09:18:08.734Z,12.13
2023-02-22T09:21:12.047Z,12.37
2023-02-22T09:24:14.912Z,12.00
2023-02-22T09:27:20.310Z,11.65
2023-02-22T09:30:25.284Z,10.77
2023-02-22T09:33:27.589Z,9.82
2023-02-22T09:36:30.058Z,11.15
2023-02-22T09:39:37.942Z,10.32
2023-02-22T09:42:47.172Z,10.63
2023-02-22T09:46:19.685Z,9.60
2023-02-22T09:49:34.787Z,8.70
2023-02-22T09:52:41.711Z,9.48
2023-02-22T09:55:51.239Z,8.23
2023-02-22T09:58:59.609Z,9.82
2023-02-22T10:02:30.503Z,8.27
2023-02-22T10:05:43.016Z,6.72
2023-02-22T10:08:45.656Z,7.72
2023-02-22T10:12:15.301Z,7.47
2023-02-22T10:15:32.786Z,7.65
2023-02-22T10:19:01.866Z,7.87
2023-02-22T10:22:07.905Z,7.50
2023-02-22T10:25:26.059Z,7.18
2023-02-22T10:28:38.322Z,6.43
2023-02-22T10:31:47.328Z,7.95
2023-02-22T10:34:54.076Z,6.10
2023-02-22T10:38:17.446Z,7.95
2023-02-22T10:41:28.040Z,7.60
2023-02-22T10:44:30.853Z,7.57
2023-02-22T10:47:34.152Z,6.95
2023-02-22T10:50:41.018Z,7.07
2023-02-22T10:53:43.417Z,7.22
2023-02-22T10:56:52.458Z,6.70
2023-02-22T10:59:57.763Z,6.82
2023-02-22T11:03:02.580Z,7.47
2023-02-22T11:06:19.588Z,7.00
2023-02-22T11:09:22.806Z,6.10
2023-02-22T11:12:32.303Z,4.90
2023-02-22T11:15:36.241Z,5.62
2023-02-22T11:18:38.532Z,6.72
2023-02-22T11:21:41.764Z,5.27
2023-02-22T11:24:51.271Z,5.60
2023-02-22T11:27:54.299Z,6.20
2023-02-22T11:30:59.341Z,5.65
2023-02-22T11:34:04.040Z,5.28
2023-02-22T11:37:37.023Z,5.83
2023-02-22T11:40:40.385Z,5.05
2023-02-22T11:43:48.140Z,4.90
2023-02-22T11:46:52.177Z,5.00
2023-02-22T11:49:54.688Z,4.93
2023-02-22T11:53:12.032Z,4.80
2023-02-22T11:56:37.770Z,5.53
2023-02-22T11:59:41.092Z,6.30
2023-02-22T12:03:33.552Z,5.07
2023-02-22T12:06:53.848Z,4.80
2023-02-22T12:10:23.077Z,5.53
2023-02-22T12:13:44.529Z,4.57
2023-02-22T12:16:49.768Z,5.00
2023-02-22T12:19:59.755Z,4.93
2023-02-22T12:23:34.040Z,5.05
2023-02-22T12:26:41.500Z,5.70
2023-02-22T12:29:50.789Z,4.53
2023-02-22T12:32:55.546Z,5.37
2023-02-22T12:36:00.946Z,4.35
2023-02-22T12:39:29.749Z,4.95
2023-02-22T12:42:57.942Z,4.43
2023-02-22T12:46:16.351Z,4.03
2023-02-22T12:49:30.886Z,4.25
2023-02-22T12:52:37.735Z,4.55
2023-02-22T12:55:48.026Z,5.05
2023-02-22T12:58:54.887Z,5.50
2023-02-22T13:02:04.372Z,5.47
2023-02-22T13:05:14.161Z,5.25
2023-02-22T13:08:38.785Z,4.80
2023-02-22T13:11:53.057Z,4.43
2023-02-22T13:15:11.062Z,3.70
2023-02-22T13:18:19.152Z,4.43
2023-02-22T13:21:36.567Z,4.75
2023-02-22T13:24:53.081Z,4.35
2023-02-22T13:28:10.505Z,3.87
2023-02-22T13:31:39.321Z,3.70
2023-02-22T13:34:58.243Z,3.45
2023-02-22T13:38:35.596Z,3.72
2023-02-22T13:41:46.521Z,3.47
2023-02-22T13:45:08.123Z,4.70
2023-02-22T13:48:47.917Z,4.03
2023-02-22T13:51:59.070Z,3.42
2023-02-22T13:55:11.449Z,3.58
2023-02-22T13:58:14.462Z,3.55
2023-02-22T14:01:43.822Z,4.20
2023-02-22T14:04:46.310Z,3.97
2023-02-22T14:07:49.686Z,4.00
2023-02-22T14:10:56.531Z,3.90
2023-02-22T14:14:19.407Z,3.85
2023-02-22T14:17:25.668Z,4.15
2023-02-22T14:20:37.064Z,4.17
2023-02-22T14:23:45.279Z,3.65
2023-02-22T14:27:04.664Z,3.33
2023-02-22T14:30:07.991Z,4.00
2023-02-22T14:33:47.866Z,4.70
2023-02-22T14:37:07.883Z,3.80
2023-02-22T14:40:27.988Z,3.92
2023-02-22T14:43:30.897Z,4.10
2023-02-22T14:46:40.767Z,4.30
2023-02-22T14:49:48.222Z,4.97
2023-02-22T14:53:23.004Z,4.00
2023-02-22T14:56:36.426Z,4.10
2023-02-22T14:59:54.533Z,5.10
2023-02-22T15:03:00.977Z,3.92
2023-02-22T15:06:06.669Z,4.20
2023-02-22T15:09:16.143Z,4.67
2023-02-22T15:12:31.302Z,4.47
2023-02-22T15:15:33.769Z,5.47
2023-02-22T15:18:43.404Z,4.65
2023-02-22T15:21:46.798Z,4.35
2023-02-22T15:25:00.511Z,4.70
2023-02-22T15:28:05.519Z,5.10
2023-02-22T15:31:27.726Z,4.45
2023-02-22T15:34:32.328Z,4.57
2023-02-22T15:37:35.052Z,5.57
2023-02-22T15:40:43.286Z,5.23
2023-02-22T15:43:45.821Z,5.15
2023-02-22T15:46:48.337Z,5.90
2023-02-22T15:50:16.151Z,6.50
2023-02-22T15:53:40.390Z,9.15
2023-02-22T15:56:55.675Z,8.97
2023-02-22T15:59:58.565Z,11.63
2023-02-22T16:03:01.140Z,8.10
2023-02-22T16:06:12.139Z,6.82
2023-02-22T16:09:23.281Z,7.07
2023-02-22T16:12:28.320Z,6.30
2023-02-22T16:15:36.956Z,6.03
2023-02-22T16:18:40.046Z,6.93
2023-02-22T16:22:03.675Z,5.90
2023-02-22T16:25:18.916Z,6.25
2023-02-22T16:28:36.669Z,6.13
2023-02-22T16:31:41.709Z,6.53
2023-02-22T16:34:45.702Z,6.37
2023-02-22T16:37:57.458Z,6.90
2023-02-22T16:41:01.144Z,6.70
2023-02-22T16:44:08.416Z,8.60
2023-02-22T16:47:13.299Z,8.27
2023-02-22T16:50:17.969Z,9.63
2023-02-22T16:53:24.891Z,11.60
2023-02-22T16:56:34.444Z,20.08
2023-02-22T16:59:40.795Z,11.90
2023-02-22T17:02:45.939Z,15.82
2023-02-22T17:05:50.614Z,14.68
2023-02-22T17:08:54.762Z,18.33
2023-02-22T17:12:00.917Z,28.60
2023-02-22T17:15:05.543Z,20.53
2023-02-22T17:18:23.513Z,13.77
2023-02-22T17:21:28.277Z,19.05
2023-02-22T17:24:34.687Z,26.33
2023-02-22T17:27:38.968Z,32.80
2023-02-22T17:30:44.692Z,35.63
2023-02-22T17:33:48.256Z,22.45
2023-02-22T17:36:51.373Z,33.38
2023-02-22T17:39:56.132Z,50.10
2023-02-22T17:42:59.566Z,44.50
2023-02-22T17:46:08.159Z,40.40
2023-02-22T17:49:14.086Z,38.38
2023-02-22T17:52:17.985Z,30.33
2023-02-22T17:55:22.639Z,28.55
2023-02-22T17:58:31.284Z,27.67
2023-02-22T18:01:34.582Z,28.37
2023-02-22T18:04:39.987Z,23.83
2023-02-22T18:07:44.673Z,20.62
2023-02-22T18:10:47.825Z,22.40
2023-02-22T18:13:53.214Z,23.73
2023-02-22T18:16:56.481Z,20.67
2023-02-22T18:20:01.250Z,23.87
2023-02-22T18:23:12.069Z,26.33
2023-02-22T18:26:18.755Z,30.42
2023-02-22T18:29:22.166Z,26.57
2023-02-22T18:32:30.996Z,25.73
2023-02-22T18:35:35.802Z,31.12
2023-02-22T18:38:44.059Z,28.73
2023-02-22T18:41:52.245Z,28.38
2023-02-22T18:45:01.425Z,28.93
2023-02-22T18:48:05.160Z,27.30
2023-02-22T18:51:11.659Z,36.55
2023-02-22T18:54:15.186Z,27.98
2023-02-22T18:57:23.281Z,27.67
2023-02-22T19:00:30.043Z,25.77
2023-02-22T19:03:39.531Z,24.97
2023-02-22T19:06:45.832Z,25.92
2023-02-22T19:09:51.555Z,26.80
2023-02-22T19:12:55.769Z,24.42
2023-02-22T19:15:59.569Z,24.37
2023-02-22T19:19:07.869Z,24.27
2023-02-22T19:22:16.510Z,23.30
2023-02-22T19:25:23.060Z,16.02
2023-02-22T19:28:34.520Z,15.85
2023-02-22T19:31:40.887Z,14.43
2023-02-22T19:34:46.166Z,15.73
2023-02-22T19:37:54.589Z,15.95
2023-02-22T19:41:00.322Z,18.85
2023-02-22T19:44:05.370Z,18.23
2023-02-22T19:47:10.756Z,17.67
2023-02-22T19:50:16.646Z,16.67
2023-02-22T19:53:21.361Z,15.63
2023-02-22T19:56:29.783Z,15.43
2023-02-22T19:59:34.171Z,15.18
2023-02-22T20:02:40.350Z,13.93
2023-02-22T20:05:54.458Z,14.13
2023-02-22T20:08:58.912Z,13.65
2023-02-22T20:12:06.246Z,14.77
2023-02-22T20:15:12.777Z,16.10
2023-02-22T20:18:18.002Z,17.17
2023-02-22T20:21:32.006Z,15.73
2023-02-22T20:24:37.131Z,14.85
2023-02-22T20:27:41.346Z,13.95
2023-02-22T20:30:45.474Z,14.07
2023-02-22T20:33:53.928Z,13.77
2023-02-22T20:36:58.875Z,13.20
2023-02-22T20:40:05.522Z,12.75
2023-02-22T20:43:10.452Z,12.88
2023-02-22T20:46:14.428Z,12.73
2023-02-22T20:49:23.781Z,13.37
2023-02-22T20:52:28.472Z,13.00
2023-02-22T20:55:35.105Z,13.00
2023-02-22T20:58:38.699Z,13.20
2023-02-22T21:01:42.979Z,13.77
2023-02-22T21:04:46.866Z,14.23
2023-02-22T21:07:50.624Z,13.67
2023-02-22T21:10:56.475Z,14.40
2023-02-22T21:14:01.232Z,14.70
2023-02-22T21:17:05.416Z,12.73
2023-02-22T21:20:13.581Z,13.03
2023-02-22T21:23:18.365Z,12.53
2023-02-22T21:26:24.880Z,13.82
2023-02-22T21:29:30.008Z,15.45
2023-02-22T21:36:34.215Z,14.77
2023-02-22T21:39:37.805Z,12.40
2023-02-22T21:45:54.347Z,11.48
2023-02-22T21:48:58.950Z,11.55
2023-02-22T21:52:04.984Z,11.57
2023-02-22T21:55:08.067Z,11.13
2023-02-22T21:58:10.519Z,10.98
2023-02-22T22:01:17.977Z,11.80
2023-02-22T22:04:23.002Z,11.30
2023-02-22T22:07:25.233Z,11.10
2023-02-22T22:10:33.286Z,10.57
2023-02-22T22:17:00.295Z,10.77
2023-02-22T22:20:05.478Z,9.10
2023-02-22T22:23:08.021Z,11.63
2023-02-22T22:26:13.570Z,10.43
2023-02-22T22:29:15.747Z,11.80
2023-02-22T22:32:20.932Z,10.60
2023-02-22T22:35:23.463Z,9.60
2023-02-22T22:38:29.939Z,8.93
2023-02-22T22:41:34.064Z,8.57
2023-02-22T22:44:42.278Z,9.38
2023-02-22T22:47:46.298Z,8.23
2023-02-22T22:50:57.133Z,7.70
2023-02-22T22:54:00.311Z,8.90
2023-02-22T22:57:04.109Z,7.93
2023-02-22T23:00:29.899Z,7.72
2023-02-22T23:03:33.871Z,7.60
2023-02-22T23:06:47.964Z,7.25
2023-02-22T23:09:50.083Z,7.67
2023-02-22T23:12:53.904Z,7.50
2023-02-22T23:15:56.075Z,7.78
2023-02-22T23:18:59.199Z,7.65
2023-02-22T23:22:01.927Z,7.68
2023-02-22T23:25:05.874Z,8.30
2023-02-22T23:28:14.780Z,8.40
2023-02-22T23:31:18.065Z,7.40
2023-02-22T23:34:23.296Z,7.60
2023-02-22T23:37:25.337Z,8.32
2023-02-22T23:40:29.200Z,7.93
2023-02-22T23:43:34.869Z,7.87
2023-02-22T23:46:41.847Z,8.05
2023-02-22T23:49:49.423Z,8.73
2023-02-22T23:52:59.730Z,8.35
2023-02-22T23:56:01.834Z,8.53
2023-02-22T23:59:11.205Z,9.07
